createdAt,value
2023-04-20T00:01:05.235Z,48.23
2023-04-20T00:03:35.581Z,48.40
2023-04-20T00:06:04.326Z,48.36
2023-04-20T00:08:32.423Z,48.17
2023-04-20T00:11:00.767Z,48.24
2023-04-20T00:13:28.995Z,48.35
2023-04-20T00:15:57.036Z,48.23
2023-04-20T00:18:25.228Z,48.18
2023-04-20T00:20:53.345Z,48.09
2023-04-20T00:23:21.421Z,47.88
2023-04-20T00:25:49.823Z,48.05
2023-04-20T00:28:17.919Z,48.15
2023-04-20T00:30:46.149Z,47.95
2023-04-20T00:33:14.418Z,47.93
2023-04-20T00:35:43.505Z,47.78
2023-04-20T00:38:11.644Z,47.94
2023-04-20T00:40:39.753Z,47.89
2023-04-20T00:43:11.701Z,48.09
2023-04-20T00:45:39.752Z,47.96
2023-04-20T00:48:08.103Z,48.17
2023-04-20T00:50:36.191Z,48.13
2023-04-20T00:53:04.326Z,48.32
2023-04-20T00:55:32.406Z,48.38
2023-04-20T00:58:00.626Z,48.07
2023-04-20T01:00:28.776Z,48.01
2023-04-20T01:02:57.293Z,48.21
2023-04-20T01:05:25.897Z,48.33
2023-04-20T01:07:54.049Z,48.24
2023-04-20T01:10:22.361Z,48.35
2023-04-20T01:12:50.533Z,48.38
2023-04-20T01:15:18.615Z,48.22
2023-04-20T01:17:47.829Z,48.42
2023-04-20T01:20:16.278Z,48.59
2023-04-20T01:22:48.232Z,48.76
2023-04-20T01:25:17.193Z,48.79
2023-04-20T01:27:45.590Z,49.10
2023-04-20T01:30:13.818Z,49.23
2023-04-20T01:32:42.020Z,49.38
2023-04-20T01:35:10.911Z,49.34
2023-04-20T01:37:40.111Z,49.33
2023-04-20T01:40:12.320Z,49.16
2023-04-20T01:42:41.096Z,49.42
2023-04-20T01:45:09.485Z,49.44
2023-04-20T01:47:38.152Z,49.54
2023-04-20T01:50:08.518Z,49.55
2023-04-20T01:52:37.031Z,49.58
2023-04-20T01:55:06.210Z,49.52
2023-04-20T01:57:34.621Z,49.51
2023-04-20T02:00:04.251Z,49.58
2023-04-20T02:02:42.899Z,49.65
2023-04-20T02:05:11.202Z,49.40
2023-04-20T02:07:39.338Z,49.60
2023-04-20T02:10:08.482Z,49.67
2023-04-20T02:12:36.765Z,49.91
2023-04-20T02:15:06.926Z,50.04
2023-04-20T02:17:36.870Z,49.98
2023-04-20T02:20:11.486Z,49.85
2023-04-20T02:22:40.078Z,49.83
2023-04-20T02:25:10.540Z,49.90
2023-04-20T02:27:39.233Z,50.08
2023-04-20T02:30:08.493Z,50.02
2023-04-20T02:32:37.415Z,49.93
2023-04-20T02:35:05.868Z,49.61
2023-04-20T02:37:34.158Z,49.51
2023-04-20T02:40:02.781Z,49.60
2023-04-20T02:42:31.144Z,49.48
2023-04-20T02:44:59.981Z,49.53
2023-04-20T02:47:28.164Z,49.54
2023-04-20T02:49:56.208Z,49.42
2023-04-20T02:52:24.782Z,49.52
2023-04-20T02:54:53.269Z,49.47
2023-04-20T02:57:21.397Z,49.50
2023-04-20T02:59:49.962Z,49.40
2023-04-20T03:02:28.492Z,49.49
2023-04-20T03:04:57.047Z,49.46
2023-04-20T03:07:26.343Z,49.47
2023-04-20T03:09:54.721Z,49.62
2023-04-20T03:12:23.072Z,49.32
2023-04-20T03:14:59.780Z,49.41
2023-04-20T03:17:39.878Z,49.51
2023-04-20T03:20:09.266Z,49.40
2023-04-20T03:22:37.923Z,49.40
2023-04-20T03:25:07.833Z,49.56
2023-04-20T03:28:05.327Z,48.87
2023-04-20T03:30:33.652Z,48.00
2023-04-20T03:33:08.621Z,47.37
2023-04-20T03:35:39.875Z,47.47
2023-04-20T03:38:07.999Z,47.25
2023-04-20T03:40:36.501Z,47.07
2023-04-20T03:43:05.957Z,47.12
2023-04-20T03:45:34.102Z,47.10
2023-04-20T03:48:02.394Z,47.07
2023-04-20T03:50:31.268Z,47.26
2023-04-20T03:52:59.628Z,47.56
2023-04-20T03:55:28.129Z,47.83
2023-04-20T03:58:00.676Z,48.45
2023-04-20T04:00:31.116Z,49.15
2023-04-20T04:03:02.283Z,49.83
2023-04-20T04:05:30.772Z,50.36
2023-04-20T04:07:58.991Z,51.05
2023-04-20T04:10:27.136Z,51.27
2023-04-20T04:12:55.278Z,51.58
2023-04-20T04:15:23.845Z,51.78
2023-04-20T04:18:00.836Z,52.00
2023-04-20T04:20:29.717Z,52.06
2023-04-20T04:22:58.424Z,52.50
2023-04-20T04:25:47.006Z,52.97
2023-04-20T04:28:15.560Z,53.48
2023-04-20T04:30:49.776Z,54.10
2023-04-20T04:33:19.170Z,54.50
2023-04-20T04:35:48.777Z,54.55
2023-04-20T04:38:17.579Z,54.72
2023-04-20T04:40:47.843Z,54.84
2023-04-20T04:43:16.141Z,54.86
2023-04-20T04:45:53.756Z,55.06
2023-04-20T04:48:21.854Z,55.54
2023-04-20T04:50:49.903Z,55.74
2023-04-20T04:53:18.203Z,56.00
2023-04-20T04:55:46.621Z,56.13
2023-04-20T04:58:15.347Z,56.52
2023-04-20T05:00:43.868Z,56.63
2023-04-20T05:03:12.069Z,56.98
2023-04-20T05:05:40.301Z,57.29
2023-04-20T05:08:08.425Z,57.32
2023-04-20T05:10:36.644Z,57.66
2023-04-20T05:13:04.799Z,58.30
2023-04-20T05:15:33.304Z,58.46
2023-04-20T05:18:02.392Z,58.99
2023-04-20T05:20:30.477Z,59.33
2023-04-20T05:22:58.653Z,59.64
2023-04-20T05:25:26.812Z,59.89
2023-04-20T05:27:55.132Z,60.18
2023-04-20T05:30:23.370Z,60.29
2023-04-20T05:32:52.481Z,60.49
2023-04-20T05:35:21.598Z,60.94
2023-04-20T05:37:49.892Z,61.61
2023-04-20T05:40:17.909Z,62.13
2023-04-20T05:42:46.156Z,62.45
2023-04-20T05:45:14.187Z,62.82
2023-04-20T05:47:42.382Z,63.26
2023-04-20T05:50:10.985Z,63.99
2023-04-20T05:52:39.114Z,64.57
2023-04-20T05:55:07.637Z,65.18
2023-04-20T05:57:42.749Z,65.44
2023-04-20T06:00:14.561Z,65.78
2023-04-20T06:02:43.278Z,65.93
2023-04-20T06:05:11.727Z,65.97
2023-04-20T06:07:40.457Z,66.05
2023-04-20T06:10:09.024Z,66.03
2023-04-20T06:12:37.462Z,66.17
2023-04-20T06:15:10.960Z,66.80
2023-04-20T06:17:41.090Z,66.72
2023-04-20T06:20:10.617Z,66.24
2023-04-20T06:22:45.626Z,66.50
2023-04-20T06:25:13.956Z,66.61
2023-04-20T06:27:42.462Z,66.22
2023-04-20T06:30:11.257Z,65.97
2023-04-20T06:32:39.799Z,65.70
2023-04-20T06:35:08.728Z,66.16
2023-04-20T06:37:37.224Z,66.15
2023-04-20T06:40:08.509Z,65.85
2023-04-20T06:42:37.664Z,65.66
2023-04-20T06:45:06.699Z,65.47
2023-04-20T06:47:35.030Z,65.57
2023-04-20T06:50:05.064Z,65.10
2023-04-20T06:52:33.522Z,64.79
2023-04-20T06:55:01.659Z,64.56
2023-04-20T06:57:29.862Z,64.51
2023-04-20T06:59:59.270Z,64.65
2023-04-20T07:02:27.729Z,64.37
2023-04-20T07:05:01.770Z,63.68
2023-04-20T07:07:30.093Z,63.45
2023-04-20T07:09:59.015Z,63.43
2023-04-20T07:12:27.332Z,62.52
2023-04-20T07:14:55.769Z,62.41
2023-04-20T07:17:27.333Z,62.43
2023-04-20T07:19:56.462Z,62.35
2023-04-20T07:22:25.210Z,62.37
2023-04-20T07:24:53.281Z,61.74
2023-04-20T07:27:21.384Z,61.18
2023-04-20T07:29:49.392Z,61.02
2023-04-20T07:32:17.482Z,61.10
2023-04-20T07:34:45.777Z,60.42
2023-04-20T07:37:13.931Z,60.07
2023-04-20T07:39:42.224Z,59.68
2023-04-20T07:42:10.262Z,59.74
2023-04-20T07:44:38.567Z,59.76
2023-04-20T07:47:06.612Z,59.49
2023-04-20T07:49:38.485Z,59.01
2023-04-20T07:52:16.514Z,59.15
2023-04-20T07:54:45.801Z,58.88
2023-04-20T07:57:14.086Z,58.83
2023-04-20T07:59:42.320Z,59.09
2023-04-20T08:02:11.056Z,58.56
2023-04-20T08:04:39.875Z,58.44
2023-04-20T08:07:08.427Z,58.67
2023-04-20T08:09:37.138Z,58.87
2023-04-20T08:12:05.641Z,59.24
2023-04-20T08:14:34.265Z,58.77
2023-04-20T08:17:02.442Z,58.73
2023-04-20T08:19:30.570Z,59.05
2023-04-20T08:21:59.068Z,58.83
2023-04-20T08:24:28.239Z,58.82
2023-04-20T08:26:56.749Z,58.60
2023-04-20T08:29:26.146Z,58.50
2023-04-20T08:31:54.456Z,58.35
2023-04-20T08:34:22.559Z,58.54
2023-04-20T08:36:51.105Z,58.71
2023-04-20T08:39:20.715Z,59.02
2023-04-20T08:41:53.743Z,59.38
2023-04-20T08:44:22.400Z,59.32
2023-04-20T08:46:50.745Z,59.32
2023-04-20T08:49:19.472Z,59.54
2023-04-20T08:51:48.012Z,59.79
2023-04-20T08:54:16.718Z,60.31
2023-04-20T08:56:46.031Z,60.68
2023-04-20T08:59:14.922Z,61.08
2023-04-20T09:01:43.402Z,61.32
2023-04-20T09:04:27.872Z,61.44
2023-04-20T09:06:56.552Z,61.22
2023-04-20T09:09:25.729Z,61.30
2023-04-20T09:12:04.086Z,61.14
2023-04-20T09:14:42.594Z,60.99
2023-04-20T09:17:14.545Z,61.08
2023-04-20T09:19:45.992Z,60.86
2023-04-20T09:22:13.977Z,60.56
2023-04-20T09:24:42.922Z,60.53
2023-04-20T09:27:17.973Z,60.50
2023-04-20T09:29:57.806Z,60.65
2023-04-20T09:45:00.767Z,60.17
2023-04-20T09:47:30.078Z,58.88
2023-04-20T09:50:00.120Z,58.97
2023-04-20T09:52:30.656Z,59.07
2023-04-20T09:54:59.121Z,58.83
2023-04-20T09:57:27.224Z,58.66
2023-04-20T09:59:55.953Z,58.25
2023-04-20T10:02:24.119Z,58.42
2023-04-20T10:04:55.854Z,58.91
2023-04-20T10:07:27.803Z,59.09
2023-04-20T10:10:06.476Z,59.22
2023-04-20T10:12:37.092Z,59.27
2023-04-20T10:15:05.485Z,59.56
2023-04-20T10:17:35.159Z,59.68
2023-04-20T10:20:04.848Z,59.58
2023-04-20T10:22:33.765Z,59.98
2023-04-20T10:25:02.947Z,60.14
2023-04-20T10:27:32.600Z,60.33
2023-04-20T10:30:11.074Z,60.47
2023-04-20T10:32:39.282Z,60.35
2023-04-20T10:35:10.553Z,59.98
2023-04-20T10:37:51.676Z,59.91
2023-04-20T10:40:27.199Z,59.87
2023-04-20T10:42:55.537Z,59.82
2023-04-20T10:45:37.130Z,59.94
2023-04-20T10:48:09.753Z,59.84
2023-04-20T10:50:37.941Z,59.81
2023-04-20T10:53:06.250Z,59.97
2023-04-20T10:55:34.937Z,60.07
2023-04-20T10:58:03.018Z,60.26
2023-04-20T11:00:31.250Z,60.33
2023-04-20T11:02:59.532Z,60.51
2023-04-20T11:05:27.973Z,60.74
2023-04-20T11:08:00.250Z,61.16
2023-04-20T11:10:39.000Z,61.84
2023-04-20T11:13:07.563Z,62.01
2023-04-20T11:15:36.363Z,62.26
2023-04-20T11:18:08.305Z,62.87
2023-04-20T11:20:36.612Z,63.38
2023-04-20T11:23:06.077Z,63.87
2023-04-20T11:25:34.714Z,63.86
2023-04-20T11:28:09.296Z,63.99
2023-04-20T11:30:41.570Z,64.22
2023-04-20T11:33:10.362Z,64.15
2023-04-20T11:35:40.194Z,63.99
2023-04-20T11:38:08.435Z,63.37
2023-04-20T11:40:36.732Z,63.12
2023-04-20T11:43:05.085Z,63.38
2023-04-20T11:45:36.739Z,62.97
2023-04-20T11:48:06.179Z,62.96
2023-04-20T11:50:34.489Z,62.43
2023-04-20T11:53:02.680Z,62.06
2023-04-20T11:55:31.216Z,61.47
2023-04-20T11:57:59.386Z,60.78
2023-04-20T12:00:27.612Z,60.13
2023-04-20T12:02:55.827Z,60.12
2023-04-20T12:05:24.125Z,59.90
2023-04-20T12:07:52.392Z,59.69
2023-04-20T12:10:20.556Z,58.88
2023-04-20T12:12:49.364Z,58.12
2023-04-20T12:15:17.509Z,57.99
2023-04-20T12:17:45.873Z,57.92
2023-04-20T12:20:14.431Z,57.49
2023-04-20T12:22:42.780Z,57.16
2023-04-20T12:25:11.194Z,57.36
2023-04-20T12:27:39.607Z,56.97
2023-04-20T12:30:09.564Z,56.65
2023-04-20T12:32:39.781Z,56.68
2023-04-20T12:35:08.672Z,56.24
2023-04-20T12:37:36.971Z,56.40
2023-04-20T12:40:06.543Z,56.42
2023-04-20T12:42:35.349Z,56.22
2023-04-20T12:45:03.826Z,55.72
2023-04-20T12:47:32.047Z,55.27
2023-04-20T12:50:00.178Z,54.83
2023-04-20T12:52:29.305Z,55.25
2023-04-20T12:54:57.811Z,55.60
2023-04-20T12:57:25.982Z,55.43
2023-04-20T12:59:54.701Z,55.06
2023-04-20T13:02:22.900Z,54.82
2023-04-20T13:04:52.610Z,54.99
2023-04-20T13:07:20.791Z,55.07
2023-04-20T13:09:48.991Z,54.76
2023-04-20T13:12:17.595Z,54.70
2023-04-20T13:14:46.009Z,54.67
2023-04-20T13:17:14.050Z,54.09
2023-04-20T13:19:42.100Z,54.04
2023-04-20T13:22:11.822Z,54.29
2023-04-20T13:24:41.442Z,53.08
2023-04-20T13:27:09.610Z,52.78
2023-04-20T13:29:38.602Z,52.65
2023-04-20T13:32:06.948Z,52.07
2023-04-20T13:34:35.403Z,52.03
2023-04-20T13:37:03.685Z,51.61
2023-04-20T13:39:31.779Z,51.58
2023-04-20T13:41:59.804Z,51.15
2023-04-20T13:44:28.016Z,50.45
2023-04-20T13:46:56.556Z,49.85
2023-04-20T13:49:24.779Z,49.69
2023-04-20T13:51:53.056Z,49.50
2023-04-20T13:54:21.282Z,49.75
2023-04-20T13:56:49.429Z,49.91
2023-04-20T13:59:17.500Z,49.79
2023-04-20T14:01:45.989Z,50.04
2023-04-20T14:04:16.887Z,50.53
2023-04-20T14:06:45.419Z,51.07
2023-04-20T14:09:13.456Z,51.03
2023-04-20T14:11:43.628Z,50.89
2023-04-20T14:14:12.153Z,50.33
2023-04-20T14:16:45.078Z,47.03
2023-04-20T14:19:13.755Z,47.83
2023-04-20T14:21:44.251Z,49.45
2023-04-20T14:24:12.333Z,49.85
2023-04-20T14:26:40.518Z,50.00
2023-04-20T14:29:08.551Z,50.04
2023-04-20T14:31:37.358Z,50.14
2023-04-20T14:34:05.702Z,49.99
2023-04-20T14:36:34.965Z,49.91
2023-04-20T14:39:03.455Z,49.89
2023-04-20T14:41:34.224Z,50.13
2023-04-20T14:44:02.452Z,50.34
2023-04-20T14:46:30.720Z,50.47
2023-04-20T14:48:58.854Z,50.56
2023-04-20T14:51:27.183Z,50.43
2023-04-20T14:53:55.428Z,50.52
2023-04-20T14:56:23.693Z,50.88
2023-04-20T14:58:52.411Z,50.98
2023-04-20T15:01:21.495Z,51.14
2023-04-20T15:03:49.760Z,50.93
2023-04-20T15:06:17.991Z,50.86
2023-04-20T15:08:46.682Z,50.96
2023-04-20T15:11:14.871Z,51.00
2023-04-20T15:13:43.793Z,50.65
2023-04-20T15:16:12.176Z,50.66
2023-04-20T15:18:40.412Z,50.78
2023-04-20T15:21:08.799Z,50.79
2023-04-20T15:23:37.088Z,50.62
2023-04-20T15:26:07.006Z,50.22
2023-04-20T15:28:35.215Z,50.10
2023-04-20T15:31:03.360Z,50.30
2023-04-20T15:33:31.682Z,50.13
2023-04-20T15:35:59.722Z,49.72
2023-04-20T15:38:27.857Z,49.53
2023-04-20T15:40:55.863Z,49.66
2023-04-20T15:43:24.068Z,49.73
2023-04-20T15:45:52.399Z,49.63
2023-04-20T15:48:21.061Z,49.49
2023-04-20T15:50:52.524Z,49.18
2023-04-20T15:53:22.291Z,49.21
2023-04-20T15:55:50.359Z,49.24
2023-04-20T15:58:18.428Z,49.30
2023-04-20T16:00:46.480Z,49.09
2023-04-20T16:03:14.731Z,49.13
2023-04-20T16:05:43.060Z,49.23
2023-04-20T16:08:11.234Z,49.39
2023-04-20T16:10:39.368Z,49.53
2023-04-20T16:13:07.700Z,49.27
2023-04-20T16:15:35.994Z,49.24
2023-04-20T16:18:05.470Z,49.34
2023-04-20T16:20:33.716Z,49.53
2023-04-20T16:23:01.786Z,49.36
2023-04-20T16:25:29.904Z,49.36
2023-04-20T16:27:58.135Z,49.37
2023-04-20T16:30:26.301Z,49.36
2023-04-20T16:32:54.448Z,49.14
2023-04-20T16:35:22.642Z,48.96
2023-04-20T16:37:51.463Z,49.04
2023-04-20T16:40:21.120Z,49.08
2023-04-20T16:42:49.212Z,49.14
2023-04-20T16:45:17.424Z,49.18
2023-04-20T16:47:46.328Z,49.20
2023-04-20T16:50:19.716Z,49.26
2023-04-20T16:52:49.248Z,49.55
2023-04-20T16:55:17.302Z,50.09
2023-04-20T16:57:45.380Z,50.40
2023-04-20T17:00:14.332Z,51.07
2023-04-20T17:02:42.753Z,51.45
2023-04-20T17:05:11.108Z,52.01
2023-04-20T17:07:40.186Z,52.21
2023-04-20T17:10:08.438Z,52.75
2023-04-20T17:12:36.673Z,53.46
2023-04-20T17:15:05.073Z,53.74
2023-04-20T17:17:34.216Z,53.84
2023-04-20T17:20:02.422Z,54.09
2023-04-20T17:22:31.317Z,54.22
2023-04-20T17:25:00.581Z,54.36
2023-04-20T17:27:28.876Z,54.72
2023-04-20T17:29:57.708Z,55.09
2023-04-20T17:32:26.879Z,55.24
2023-04-20T17:34:54.990Z,55.36
2023-04-20T17:37:23.390Z,55.48
2023-04-20T17:39:51.407Z,55.33
2023-04-20T17:42:19.536Z,55.25
2023-04-20T17:44:47.554Z,55.17
2023-04-20T17:47:15.744Z,55.25
2023-04-20T17:49:44.038Z,55.27
2023-04-20T17:52:15.282Z,55.46
2023-04-20T17:54:43.486Z,55.36
2023-04-20T17:57:11.701Z,55.13
2023-04-20T17:59:42.354Z,55.18
2023-04-20T18:02:12.004Z,55.25
2023-04-20T18:04:40.549Z,55.47
2023-04-20T18:07:09.035Z,55.26
2023-04-20T18:09:38.965Z,54.66
2023-04-20T18:12:08.706Z,54.33
2023-04-20T18:14:37.547Z,54.11
2023-04-20T18:17:05.669Z,53.95
2023-04-20T18:19:33.900Z,53.78
2023-04-20T18:22:01.980Z,53.55
2023-04-20T18:24:30.137Z,53.39
2023-04-20T18:26:58.274Z,53.10
2023-04-20T18:29:26.317Z,53.17
2023-04-20T18:31:56.221Z,53.28
2023-04-20T18:34:25.367Z,53.47
2023-04-20T18:36:53.576Z,53.49
2023-04-20T18:39:21.677Z,53.52
2023-04-20T18:41:49.820Z,53.73
2023-04-20T18:44:18.122Z,53.79
2023-04-20T18:46:46.653Z,53.82
2023-04-20T18:49:14.898Z,53.72
2023-04-20T18:51:43.264Z,53.60
2023-04-20T18:54:11.432Z,53.83
2023-04-20T18:56:39.817Z,53.96
2023-04-20T18:59:09.096Z,54.16
2023-04-20T19:01:40.752Z,54.23
2023-04-20T19:04:09.237Z,54.48
2023-04-20T19:06:39.083Z,54.55
2023-04-20T19:09:08.386Z,54.57
2023-04-20T19:11:36.649Z,54.70
2023-04-20T19:14:04.753Z,54.77
2023-04-20T19:16:33.356Z,54.85
2023-04-20T19:19:01.518Z,54.95
2023-04-20T19:21:30.083Z,54.96
2023-04-20T19:23:58.231Z,54.92
2023-04-20T19:26:26.190Z,54.85
2023-04-20T19:28:54.287Z,54.88
2023-04-20T19:31:22.371Z,54.84
2023-04-20T19:33:50.404Z,54.94
2023-04-20T19:36:19.228Z,54.93
2023-04-20T19:38:47.273Z,54.94
2023-04-20T19:41:15.483Z,55.06
2023-04-20T19:43:43.508Z,55.12
2023-04-20T19:46:11.804Z,55.23
2023-04-20T19:48:39.945Z,55.19
2023-04-20T19:51:08.016Z,55.23
2023-04-20T19:53:37.342Z,55.22
2023-04-20T19:56:06.727Z,55.38
2023-04-20T19:58:34.993Z,55.30
2023-04-20T20:01:03.820Z,55.34
2023-04-20T20:03:32.767Z,55.46
2023-04-20T20:06:01.131Z,55.36
2023-04-20T20:08:30.160Z,55.21
2023-04-20T20:10:58.247Z,55.29
2023-04-20T20:13:26.467Z,55.25
2023-04-20T20:15:54.638Z,55.32
2023-04-20T20:18:23.479Z,55.26
2023-04-20T20:20:51.603Z,55.18
2023-04-20T20:23:19.687Z,55.06
2023-04-20T20:25:47.687Z,55.10
2023-04-20T20:28:17.239Z,54.98
2023-04-20T20:30:45.530Z,54.76
2023-04-20T20:33:13.882Z,54.62
2023-04-20T20:35:42.587Z,54.66
2023-04-20T20:38:11.093Z,54.78
2023-04-20T20:40:39.969Z,54.44
2023-04-20T20:43:08.703Z,54.36
2023-04-20T20:45:37.340Z,54.24
2023-04-20T20:48:05.651Z,54.43
2023-04-20T20:50:33.913Z,54.68
2023-04-20T20:53:02.256Z,54.67
2023-04-20T20:55:30.519Z,54.85
2023-04-20T20:57:58.534Z,54.86
2023-04-20T21:00:27.156Z,54.95
2023-04-20T21:02:57.208Z,54.97
2023-04-20T21:05:25.489Z,55.12
2023-04-20T21:07:53.596Z,55.30
2023-04-20T21:10:21.718Z,55.43
2023-04-20T21:12:49.733Z,55.52
2023-04-20T21:15:17.965Z,55.61
2023-04-20T21:17:46.166Z,55.63
2023-04-20T21:20:14.394Z,55.52
2023-04-20T21:22:43.211Z,55.53
2023-04-20T21:25:11.258Z,55.54
2023-04-20T21:27:39.768Z,55.83
2023-04-20T21:30:08.641Z,56.01
2023-04-20T21:32:37.343Z,56.24
2023-04-20T21:35:06.172Z,56.21
2023-04-20T21:37:34.302Z,56.40
2023-04-20T21:40:02.352Z,56.62
2023-04-20T21:42:30.674Z,56.77
2023-04-20T21:44:58.720Z,56.94
2023-04-20T21:47:26.817Z,56.75
2023-04-20T21:52:24.924Z,57.25
2023-04-20T21:54:53.123Z,56.25
2023-04-20T21:57:21.447Z,55.93
2023-04-20T21:59:49.593Z,56.05
2023-04-20T22:02:17.978Z,56.16
2023-04-20T22:04:46.828Z,55.97
2023-04-20T22:07:17.874Z,55.98
2023-04-20T22:09:45.984Z,56.01
2023-04-20T22:12:14.070Z,56.12
2023-04-20T22:14:42.111Z,56.25
2023-04-20T22:17:11.946Z,56.25
2023-04-20T22:19:40.437Z,56.49
2023-04-20T22:22:08.916Z,56.64
2023-04-20T22:24:37.093Z,56.53
2023-04-20T22:27:05.363Z,56.70
2023-04-20T22:29:33.683Z,56.64
2023-04-20T22:32:01.700Z,56.67
2023-04-20T22:34:30.005Z,56.67
2023-04-20T22:36:58.385Z,56.41
2023-04-20T22:39:26.509Z,56.45
2023-04-20T22:41:54.522Z,56.84
2023-04-20T22:44:22.656Z,57.11
2023-04-20T22:46:51.358Z,57.11
2023-04-20T22:49:19.759Z,57.02
2023-04-20T22:51:48.196Z,57.09
2023-04-20T22:54:16.231Z,57.17
2023-04-20T22:56:44.248Z,57.19
2023-04-20T22:59:12.370Z,57.11
2023-04-20T23:01:40.568Z,57.04
2023-04-20T23:04:08.957Z,57.02
2023-04-20T23:06:37.983Z,57.12
2023-04-20T23:09:08.304Z,57.31
2023-04-20T23:11:39.004Z,57.52
2023-04-20T23:14:07.586Z,57.62
2023-04-20T23:16:35.659Z,57.65
2023-04-20T23:19:03.806Z,57.72
2023-04-20T23:21:32.971Z,57.79
2023-04-20T23:24:01.114Z,57.51
2023-04-20T23:26:29.407Z,57.48
2023-04-20T23:28:57.515Z,57.57
2023-04-20T23:31:25.897Z,57.57
2023-04-20T23:33:53.921Z,57.52
2023-04-20T23:36:21.935Z,57.80
2023-04-20T23:38:49.982Z,57.92
2023-04-20T23:41:18.184Z,58.19
2023-04-20T23:43:46.290Z,58.45
2023-04-20T23:46:15.245Z,58.52
2023-04-20T23:48:43.350Z,58.34
2023-04-20T23:51:11.444Z,58.01
2023-04-20T23:53:39.633Z,57.72
2023-04-20T23:56:07.980Z,57.69
2023-04-20T23:58:36.533Z,57.49
